Time;durP1;ratioP1;P1;durP2;ratioP2;P2;SDS_P1;SDS_P2;PMS_P1;PMS_P2;Temp;Humidity;BMP_temperature;BMP_pressure;BME280_temperature;BME280_humidity;BME280_pressure;Samples;Min_cycle;Max_cycle;Signal;HPM_P1;HPM_P2
2021/05/15 00:01:51;;;;;;;10.88;4.90;;;14.20;89.60;;;;;;5052004;28;20033;-62
2021/05/15 00:04:17;;;;;;;7.72;4.30;;;14.20;90.40;;;;;;5053116;28;20496;-62
2021/05/15 00:06:43;;;;;;;9.98;4.90;;;14.10;90.20;;;;;;5033948;28;20045;-62
2021/05/15 00:09:09;;;;;;;10.60;4.65;;;14.20;88.90;;;;;;5051663;28;20037;-62
2021/05/15 00:11:35;;;;;;;10.93;5.72;;;14.20;88.50;;;;;;5027998;28;20076;-62
2021/05/15 00:14:03;;;;;;;13.40;5.95;;;14.20;87.80;;;;;;5033244;28;20044;-62
2021/05/15 00:16:29;;;;;;;11.38;5.55;;;14.20;87.60;;;;;;5052865;28;20029;-62
2021/05/15 00:18:55;;;;;;;12.77;6.07;;;14.20;87.80;;;;;;5033032;28;20041;-62
2021/05/15 00:21:21;;;;;;;10.70;5.45;;;14.20;87.80;;;;;;5053302;28;20151;-62
2021/05/15 00:23:47;;;;;;;10.98;5.50;;;14.10;88.20;;;;;;5050109;28;20033;-62
2021/05/15 00:26:14;;;;;;;15.68;6.45;;;14.10;87.90;;;;;;5033738;28;20043;-62
2021/05/15 00:28:41;;;;;;;10.88;5.28;;;14.10;87.50;;;;;;5047399;28;20029;-62
2021/05/15 00:31:07;;;;;;;12.82;6.05;;;14.10;87.60;;;;;;5051082;28;20033;-62
2021/05/15 00:33:33;;;;;;;11.88;5.00;;;14.00;87.80;;;;;;5051099;28;20047;-62
2021/05/15 00:35:59;;;;;;;9.27;4.93;;;14.10;88.00;;;;;;5051653;28;20357;-62
2021/05/15 00:38:25;;;;;;;10.23;4.93;;;14.10;88.10;;;;;;5051785;28;20037;-62
2021/05/15 00:40:51;;;;;;;9.50;4.97;;;14.00;88.40;;;;;;5050569;28;20029;-62
2021/05/15 00:43:18;;;;;;;8.98;5.13;;;13.80;89.00;;;;;;5049589;28;20029;-62
2021/05/15 00:45:45;;;;;;;10.48;5.70;;;13.60;90.10;;;;;;5032658;28;20044;-62
2021/05/15 00:48:11;;;;;;;10.80;5.50;;;13.50;90.50;;;;;;5052256;28;20040;-62
2021/05/15 00:50:37;;;;;;;11.27;5.97;;;13.50;90.50;;;;;;5033836;28;20048;-62
2021/05/15 00:53:04;;;;;;;8.40;4.60;;;13.60;90.50;;;;;;5034148;28;20472;-62
2021/05/15 00:55:31;;;;;;;13.27;5.70;;;13.70;90.40;;;;;;5034934;28;20033;-62
2021/05/15 00:57:58;;;;;;;12.02;5.15;;;13.70;90.50;;;;;;5049169;28;20159;-62
2021/05/15 01:00:24;;;;;;;11.55;5.18;;;13.70;90.40;;;;;;5045539;28;20040;-62
2021/05/15 01:02:50;;;;;;;12.55;5.15;;;13.70;90.40;;;;;;5052584;28;20403;-62
2021/05/15 01:05:16;;;;;;;13.65;5.25;;;13.70;90.70;;;;;;5053431;28;20036;-62
2021/05/15 01:07:47;;;;;;;13.68;5.72;;;13.70;90.40;;;;;;5052603;28;20029;-62
2021/05/15 01:10:14;;;;;;;18.77;7.03;;;13.80;89.50;;;;;;5034580;28;20048;-62
2021/05/15 01:12:51;;;;;;;13.27;5.68;;;13.80;88.90;;;;;;5034142;28;20041;-62
2021/05/15 01:15:18;;;;;;;15.05;6.93;;;13.80;89.50;;;;;;5033153;28;20037;-62
2021/05/15 01:17:51;;;;;;;15.32;7.53;;;13.70;89.50;;;;;;5051163;28;20045;-62
2021/05/15 01:20:18;;;;;;;13.07;6.20;;;13.70;89.90;;;;;;5034899;28;20052;-62
2021/05/15 01:22:45;;;;;;;20.98;7.45;;;13.70;88.90;;;;;;5048981;28;20033;-62
2021/05/15 01:25:11;;;;;;;14.38;7.13;;;13.80;89.00;;;;;;5032201;28;20404;-62
2021/05/15 01:27:37;;;;;;;11.73;5.80;;;13.80;88.50;;;;;;5042943;28;20033;-62
2021/05/15 01:30:06;;;;;;;13.48;6.35;;;13.70;88.50;;;;;;5045932;28;20099;-62
2021/05/15 01:32:32;;;;;;;12.57;6.53;;;13.70;89.20;;;;;;5032499;28;20036;-62
2021/05/15 01:34:58;;;;;;;13.45;6.53;;;13.60;89.70;;;;;;5050728;28;20135;-62
2021/05/15 01:37:24;;;;;;;15.00;7.15;;;13.60;89.60;;;;;;5024266;28;20052;-62
2021/05/15 01:39:50;;;;;;;14.05;6.63;;;13.50;90.00;;;;;;5043877;28;20040;-62
2021/05/15 01:42:18;;;;;;;16.25;6.30;;;13.50;89.00;;;;;;5052124;28;20037;-62
2021/05/15 01:44:44;;;;;;;13.23;6.30;;;13.50;89.10;;;;;;5022449;28;20482;-62
2021/05/15 01:47:10;;;;;;;16.33;6.40;;;13.50;88.20;;;;;;5026258;28;20121;-62
2021/05/15 01:49:36;;;;;;;11.02;5.68;;;13.40;88.90;;;;;;5050798;28;20052;-62
2021/05/15 01:52:02;;;;;;;13.18;5.95;;;13.30;88.90;;;;;;5035160;28;20044;-62
2021/05/15 01:54:28;;;;;;;10.68;5.55;;;13.40;88.90;;;;;;5030182;28;20054;-62
2021/05/15 01:56:53;;;;;;;10.38;4.82;;;13.30;88.60;;;;;;5041483;28;20037;-62
2021/05/15 01:59:19;;;;;;;12.10;5.70;;;13.30;89.10;;;;;;5049709;28;20048;-62
2021/05/15 02:01:45;;;;;;;9.75;4.88;;;13.40;88.10;;;;;;5052856;28;20128;-62
2021/05/15 02:04:11;;;;;;;11.00;5.65;;;13.40;88.80;;;;;;5049086;28;20778;-62
2021/05/15 02:06:37;;;;;;;10.63;5.75;;;13.40;89.10;;;;;;5049836;28;20479;-62
2021/05/15 02:09:03;;;;;;;9.02;4.82;;;13.30;88.70;;;;;;5046659;28;20086;-62
2021/05/15 02:11:29;;;;;;;8.75;4.78;;;13.40;87.30;;;;;;5031875;28;20488;-62
2021/05/15 02:13:55;;;;;;;15.02;5.28;;;13.40;88.00;;;;;;5022288;28;20038;-62
2021/05/15 02:16:21;;;;;;;8.65;4.93;;;13.30;88.00;;;;;;5050139;28;20156;-62
2021/05/15 02:18:47;;;;;;;9.32;4.63;;;13.40;87.00;;;;;;5031939;28;20041;-62
2021/05/15 02:21:13;;;;;;;9.88;4.55;;;13.40;87.20;;;;;;5049396;28;20590;-62
2021/05/15 02:23:40;;;;;;;10.93;4.80;;;13.40;87.10;;;;;;5047258;28;20029;-62
2021/05/15 02:26:06;;;;;;;8.57;4.38;;;13.30;86.60;;;;;;5045884;28;20044;-62
2021/05/15 02:28:32;;;;;;;8.82;4.38;;;13.40;86.60;;;;;;5030133;28;20033;-62
2021/05/15 02:30:58;;;;;;;9.50;5.00;;;13.40;85.80;;;;;;5028183;28;20392;-62
2021/05/15 02:33:24;;;;;;;9.20;4.00;;;13.40;86.30;;;;;;5046080;28;20041;-62
2021/05/15 02:35:50;;;;;;;8.77;4.50;;;13.30;85.70;;;;;;5050668;28;20041;-62
2021/05/15 02:38:18;;;;;;;8.50;4.43;;;13.30;86.10;;;;;;5031381;28;20100;-62
2021/05/15 02:40:46;;;;;;;10.90;4.63;;;13.20;86.80;;;;;;5048934;28;20280;-62
2021/05/15 02:43:13;;;;;;;8.38;4.22;;;13.00;87.30;;;;;;5049387;28;20041;-62
2021/05/15 02:45:39;;;;;;;8.32;4.20;;;13.10;86.30;;;;;;5050951;28;20411;-62
2021/05/15 02:48:06;;;;;;;8.07;4.30;;;13.10;85.90;;;;;;5045372;28;20395;-62
2021/05/15 02:50:32;;;;;;;9.32;4.20;;;13.10;86.40;;;;;;5019890;28;20116;-62
2021/05/15 02:52:57;;;;;;;7.95;4.40;;;13.00;86.90;;;;;;5046749;28;20143;-62
2021/05/15 02:55:25;;;;;;;10.25;4.70;;;12.90;87.40;;;;;;5048612;28;20064;-62
2021/05/15 02:57:53;;;;;;;9.32;4.93;;;12.70;88.20;;;;;;5049139;28;20103;-62
2021/05/15 03:00:23;;;;;;;9.20;4.30;;;12.90;88.00;;;;;;5044516;28;20048;-62
2021/05/15 03:02:49;;;;;;;9.60;4.28;;;12.90;87.10;;;;;;5043578;28;20037;-62
2021/05/15 03:05:17;;;;;;;11.40;5.30;;;13.00;87.30;;;;;;5039998;28;20041;-62
2021/05/15 03:07:43;;;;;;;9.00;4.38;;;13.00;88.30;;;;;;5018766;28;20044;-62
2021/05/15 03:10:11;;;;;;;8.00;4.05;;;13.00;88.60;;;;;;5048195;28;20716;-62
2021/05/15 03:12:37;;;;;;;9.85;4.25;;;12.90;88.00;;;;;;5048820;28;20399;-62
2021/05/15 03:15:11;;;;;;;10.00;4.97;;;13.00;87.60;;;;;;5026664;28;20083;-62
2021/05/15 03:17:38;;;;;;;9.27;4.72;;;13.00;86.50;;;;;;5032122;28;20037;-62
2021/05/15 03:20:06;;;;;;;10.13;5.10;;;13.00;87.20;;;;;;5045498;28;20041;-62
2021/05/15 03:22:32;;;;;;;8.65;4.68;;;12.90;87.40;;;;;;5036725;28;20037;-62
2021/05/15 03:24:58;;;;;;;9.02;4.63;;;13.00;87.30;;;;;;5027863;28;20053;-62
2021/05/15 03:27:24;;;;;;;8.07;4.60;;;13.00;87.60;;;;;;5030398;28;20041;-62
2021/05/15 03:29:51;;;;;;;13.10;4.65;;;12.80;87.70;;;;;;5049484;28;20048;-62
2021/05/15 03:32:16;;;;;;;9.82;5.03;;;12.70;88.70;;;;;;5048709;28;20082;-62
2021/05/15 03:34:43;;;;;;;9.57;4.72;;;12.80;88.70;;;;;;5049591;28;20044;-62
2021/05/15 03:37:09;;;;;;;8.70;4.47;;;12.90;88.60;;;;;;5048449;28;20091;-62
2021/05/15 03:39:35;;;;;;;8.63;4.65;;;12.90;87.40;;;;;;5046196;28;20534;-62
2021/05/15 03:42:01;;;;;;;8.85;4.80;;;12.90;88.10;;;;;;5030118;28;20061;-62
2021/05/15 03:44:26;;;;;;;8.80;4.68;;;12.90;88.50;;;;;;5048457;28;20098;-62
2021/05/15 03:46:52;;;;;;;9.75;4.97;;;12.80;88.70;;;;;;5048578;28;20044;-62
2021/05/15 03:49:19;;;;;;;10.77;4.72;;;12.90;88.80;;;;;;5043506;28;20040;-62
2021/05/15 03:51:45;;;;;;;7.95;5.07;;;13.00;88.60;;;;;;5014194;28;20034;-62
2021/05/15 03:54:11;;;;;;;9.82;5.18;;;13.10;88.90;;;;;;5031319;28;20118;-62
2021/05/15 03:56:37;;;;;;;9.88;5.75;;;13.10;89.10;;;;;;5025448;28;20033;-62
2021/05/15 03:59:04;;;;;;;9.43;5.00;;;13.00;89.80;;;;;;5030749;28;20767;-62
2021/05/15 04:01:31;;;;;;;8.52;4.97;;;12.90;90.30;;;;;;5030189;28;20192;-62
2021/05/15 04:03:57;;;;;;;10.07;4.75;;;12.80;90.60;;;;;;5033054;28;20131;-62
2021/05/15 04:06:22;;;;;;;8.18;4.20;;;12.70;91.10;;;;;;5048871;28;20156;-62
2021/05/15 04:08:48;;;;;;;8.55;4.60;;;12.70;91.40;;;;;;5047956;28;20162;-62
2021/05/15 04:11:14;;;;;;;8.30;4.85;;;12.80;91.30;;;;;;5046524;28;20041;-62
2021/05/15 04:13:59;;;;;;;8.48;4.85;;;13.00;91.20;;;;;;5050724;28;20377;-62
2021/05/15 04:16:32;;;;;;;9.00;4.85;;;13.00;91.20;;;;;;5049061;28;20052;-62
2021/05/15 04:18:58;;;;;;;9.68;5.40;;;13.00;91.50;;;;;;5044730;28;20099;-62
2021/05/15 04:21:24;;;;;;;9.32;5.03;;;13.00;92.10;;;;;;5023441;28;20057;-62
2021/05/15 04:23:50;;;;;;;7.35;4.60;;;13.10;92.20;;;;;;5016842;28;20041;-62
2021/05/15 04:26:16;;;;;;;10.90;5.25;;;13.10;92.30;;;;;;5049584;28;20040;-62
2021/05/15 04:28:42;;;;;;;8.77;5.05;;;12.90;93.00;;;;;;5030232;28;20041;-62
2021/05/15 04:31:08;;;;;;;11.40;5.30;;;13.00;93.50;;;;;;5042149;28;20037;-62
2021/05/15 04:33:36;;;;;;;9.13;5.07;;;13.00;93.80;;;;;;5023609;28;20045;-62
2021/05/15 04:36:01;;;;;;;13.55;6.70;;;13.00;94.20;;;;;;5033893;28;20176;-62
2021/05/15 04:38:27;;;;;;;12.23;6.55;;;13.00;94.30;;;;;;5051292;28;20121;-62
2021/05/15 04:40:53;;;;;;;13.15;5.72;;;13.00;94.80;;;;;;5036138;28;20574;-62
2021/05/15 04:43:23;;;;;;;10.98;6.47;;;13.10;95.00;;;;;;5052284;28;20428;-62
2021/05/15 04:45:49;;;;;;;10.85;6.43;;;13.30;94.70;;;;;;5050962;28;20049;-62
2021/05/15 04:48:15;;;;;;;12.60;6.43;;;13.30;95.00;;;;;;5012099;28;20481;-62
2021/05/15 04:50:40;;;;;;;12.50;6.78;;;13.40;95.20;;;;;;5051032;28;20044;-62
2021/05/15 04:53:06;;;;;;;11.18;6.55;;;13.50;95.10;;;;;;5049277;28;20785;-62
2021/05/15 04:55:33;;;;;;;12.32;6.72;;;13.60;95.00;;;;;;5050951;28;20048;-62
2021/05/15 04:58:00;;;;;;;12.82;7.20;;;13.80;94.80;;;;;;5052742;28;20036;-62
2021/05/15 05:00:27;;;;;;;12.10;6.63;;;13.70;94.80;;;;;;5017417;28;20036;-62
2021/05/15 05:02:53;;;;;;;9.45;6.32;;;13.80;94.20;;;;;;5051652;28;20112;-62
2021/05/15 05:05:19;;;;;;;13.32;6.95;;;13.90;94.40;;;;;;5043538;28;20033;-62
2021/05/15 05:07:45;;;;;;;11.23;6.28;;;14.00;94.00;;;;;;5051299;28;20403;-62
2021/05/15 05:10:11;;;;;;;15.07;6.90;;;14.10;94.30;;;;;;5052061;28;20041;-62
2021/05/15 05:12:37;;;;;;;12.75;6.00;;;14.10;94.10;;;;;;5033316;28;20037;-62
2021/05/15 05:15:05;;;;;;;18.00;6.28;;;14.10;94.20;;;;;;5051503;28;20036;-62
2021/05/15 05:17:31;;;;;;;11.85;6.60;;;14.20;94.30;;;;;;5043926;28;20069;-62
2021/05/15 05:19:57;;;;;;;10.75;5.95;;;14.20;94.30;;;;;;5017577;28;20460;-62
2021/05/15 05:22:23;;;;;;;8.73;4.95;;;14.20;94.20;;;;;;5015153;28;20048;-62
2021/05/15 05:24:48;;;;;;;13.30;5.88;;;14.30;94.30;;;;;;5017048;28;20111;-62
2021/05/15 05:27:14;;;;;;;12.27;6.13;;;14.30;94.70;;;;;;5051936;28;20127;-62
2021/05/15 05:29:40;;;;;;;14.52;7.10;;;14.30;94.90;;;;;;5031595;28;20037;-62
2021/05/15 05:32:10;;;;;;;12.45;6.78;;;14.40;94.40;;;;;;5050568;28;20480;-62
2021/05/15 05:34:37;;;;;;;17.20;9.02;;;14.40;94.10;;;;;;5030716;28;20073;-62
2021/05/15 05:37:04;;;;;;;16.05;8.88;;;14.40;94.40;;;;;;5053019;28;20037;-62
2021/05/15 05:39:30;;;;;;;12.45;6.65;;;14.50;94.00;;;;;;5011726;28;20055;-62
2021/05/15 05:41:57;;;;;;;11.85;6.60;;;14.50;93.90;;;;;;5050579;28;20399;-62
2021/05/15 05:44:23;;;;;;;10.40;6.85;;;14.50;94.00;;;;;;5033123;28;20041;-63
2021/05/15 05:46:49;;;;;;;10.75;5.93;;;14.50;94.30;;;;;;5027764;28;20116;-62
2021/05/15 05:49:15;;;;;;;10.25;6.00;;;14.50;94.40;;;;;;5050095;28;20128;-62
2021/05/15 05:51:40;;;;;;;10.07;4.93;;;14.50;94.50;;;;;;5050666;28;20050;-62
2021/05/15 05:54:06;;;;;;;8.43;4.90;;;14.60;94.60;;;;;;5052849;28;20123;-62
2021/05/15 05:56:33;;;;;;;8.45;4.45;;;14.60;94.50;;;;;;5034061;28;20033;-62
2021/05/15 05:58:59;;;;;;;7.35;4.53;;;14.60;94.70;;;;;;5050981;28;20051;-62
2021/05/15 06:01:25;;;;;;;10.07;5.60;;;14.60;94.90;;;;;;5048901;28;20033;-62
2021/05/15 06:03:51;;;;;;;9.35;4.90;;;14.70;95.20;;;;;;5031626;28;20091;-63
2021/05/15 06:06:16;;;;;;;11.27;5.75;;;14.70;94.90;;;;;;5045089;28;20467;-62
2021/05/15 06:08:43;;;;;;;7.30;4.90;;;14.80;95.10;;;;;;5047822;28;20041;-62
2021/05/15 06:11:09;;;;;;;8.02;4.70;;;14.80;95.00;;;;;;5031491;28;20029;-62
2021/05/15 06:13:35;;;;;;;6.90;3.97;;;14.90;95.10;;;;;;5047184;28;20039;-62
2021/05/15 06:16:01;;;;;;;8.57;5.30;;;14.90;95.50;;;;;;5043009;28;20095;-62
2021/05/15 06:18:27;;;;;;;7.07;4.55;;;14.90;95.70;;;;;;5048403;28;20037;-62
2021/05/15 06:20:54;;;;;;;8.93;5.25;;;14.90;95.70;;;;;;5031691;28;20460;-62
2021/05/15 06:23:20;;;;;;;9.48;5.00;;;15.00;95.00;;;;;;5047640;28;20035;-62
2021/05/15 06:25:46;;;;;;;10.18;5.30;;;15.00;94.50;;;;;;5030323;28;20048;-62
2021/05/15 06:28:12;;;;;;;9.13;5.57;;;15.00;94.40;;;;;;5050890;28;20036;-62
2021/05/15 06:30:38;;;;;;;9.30;5.32;;;15.00;95.10;;;;;;5032523;28;20033;-62
2021/05/15 06:33:05;;;;;;;8.93;4.85;;;15.10;95.00;;;;;;5048180;28;20044;-62
2021/05/15 06:35:33;;;;;;;7.70;4.05;;;15.10;95.10;;;;;;5049983;28;20029;-62
2021/05/15 06:37:59;;;;;;;7.53;4.75;;;15.10;94.80;;;;;;5048954;28;20516;-62
2021/05/15 06:40:25;;;;;;;7.72;3.97;;;15.10;94.80;;;;;;5047608;28;20039;-63
2021/05/15 06:42:51;;;;;;;9.25;4.97;;;15.10;95.40;;;;;;5044282;28;20041;-62
2021/05/15 06:45:17;;;;;;;8.73;4.30;;;15.20;95.20;;;;;;5045723;28;20114;-62
2021/05/15 06:47:43;;;;;;;9.80;5.47;;;15.20;95.10;;;;;;5030412;28;20040;-62
2021/05/15 06:50:09;;;;;;;6.95;4.35;;;15.20;94.70;;;;;;5047645;28;20063;-62
2021/05/15 06:52:36;;;;;;;9.57;5.00;;;15.20;95.00;;;;;;5049908;28;20054;-62
2021/05/15 06:55:03;;;;;;;6.28;4.07;;;15.20;95.20;;;;;;5030560;28;20036;-65
2021/05/15 06:57:29;;;;;;;10.63;4.50;;;15.20;95.50;;;;;;5031451;28;20037;-65
2021/05/15 06:59:55;;;;;;;8.70;4.53;;;15.30;95.00;;;;;;5029129;28;20440;-65
2021/05/15 07:02:21;;;;;;;6.20;3.88;;;15.30;94.80;;;;;;5045130;28;20391;-65
2021/05/15 07:04:47;;;;;;;8.68;4.50;;;15.40;94.40;;;;;;5047646;28;20048;-65
2021/05/15 07:07:13;;;;;;;6.90;4.63;;;15.40;94.70;;;;;;5044035;28;20033;-65
2021/05/15 07:09:38;;;;;;;8.70;4.55;;;15.40;94.70;;;;;;5046005;28;20033;-65
2021/05/15 07:12:05;;;;;;;7.90;4.32;;;15.40;94.40;;;;;;5041400;28;20044;-65
2021/05/15 07:14:30;;;;;;;9.48;4.95;;;15.40;94.90;;;;;;5039902;28;20037;-65
2021/05/15 07:16:56;;;;;;;8.90;4.20;;;15.40;95.30;;;;;;5048464;28;20487;-65
2021/05/15 07:19:22;;;;;;;6.60;3.40;;;15.50;95.10;;;;;;5047787;28;20072;-65
2021/05/15 07:21:48;;;;;;;4.60;2.80;;;15.60;94.30;;;;;;5046329;28;20041;-65
2021/05/15 07:24:14;;;;;;;5.50;3.60;;;15.60;93.70;;;;;;5044181;28;20049;-65
2021/05/15 07:26:39;;;;;;;5.13;2.70;;;15.70;93.60;;;;;;5045244;28;20423;-65
2021/05/15 07:29:06;;;;;;;4.15;2.70;;;15.80;92.30;;;;;;5046469;28;20037;-65
2021/05/15 07:31:32;;;;;;;4.70;2.53;;;15.80;92.60;;;;;;5029731;28;20083;-65
2021/05/15 07:33:59;;;;;;;2.22;1.70;;;15.90;92.60;;;;;;5043243;28;20045;-65
2021/05/15 07:36:25;;;;;;;5.55;2.85;;;15.90;93.00;;;;;;5046378;28;20044;-65
2021/05/15 07:38:51;;;;;;;6.20;2.25;;;15.90;92.20;;;;;;5049147;28;20381;-65
2021/05/15 07:41:17;;;;;;;4.22;2.17;;;16.00;91.80;;;;;;5029382;28;20041;-65
2021/05/15 07:43:43;;;;;;;4.38;2.00;;;16.10;91.50;;;;;;5015107;28;20484;-65
2021/05/15 07:46:09;;;;;;;4.82;2.42;;;16.10;90.30;;;;;;5045820;28;20149;-65
2021/05/15 07:48:39;;;;;;;2.67;2.00;;;16.10;90.50;;;;;;5047092;28;20044;-65
2021/05/15 07:51:13;;;;;;;4.90;2.10;;;16.10;89.40;;;;;;5048093;28;20041;-65
2021/05/15 07:53:39;;;;;;;6.03;1.95;;;16.10;90.00;;;;;;5029924;28;20033;-65
2021/05/15 07:56:06;;;;;;;4.05;1.63;;;16.10;90.50;;;;;;5030203;28;20052;-65
2021/05/15 07:58:32;;;;;;;5.22;1.55;;;16.10;90.80;;;;;;5033061;28;20124;-65
2021/05/15 08:00:59;;;;;;;5.22;2.38;;;16.20;90.80;;;;;;5045039;28;20049;-65
2021/05/15 08:03:25;;;;;;;4.93;1.90;;;16.20;90.80;;;;;;5046435;28;20036;-65
2021/05/15 08:05:51;;;;;;;2.80;1.58;;;16.20;87.10;;;;;;5027998;28;20472;-65
2021/05/15 08:08:17;;;;;;;3.20;1.75;;;16.30;87.80;;;;;;5033190;28;20135;-65
2021/05/15 08:10:43;;;;;;;2.83;1.38;;;16.30;87.80;;;;;;5027038;28;20029;-65
2021/05/15 08:13:09;;;;;;;3.78;1.52;;;16.30;87.50;;;;;;5050227;28;20056;-65
2021/05/15 08:15:35;;;;;;;3.63;1.98;;;16.40;84.80;;;;;;5032976;28;20041;-65
2021/05/15 08:18:01;;;;;;;4.13;1.98;;;16.50;84.30;;;;;;5049654;28;20060;-65
2021/05/15 08:20:27;;;;;;;9.68;2.75;;;16.50;82.40;;;;;;5049747;28;20094;-65
2021/05/15 08:22:53;;;;;;;3.28;2.20;;;16.60;83.80;;;;;;5042848;28;20072;-64
2021/05/15 08:25:20;;;;;;;3.67;2.00;;;16.60;84.30;;;;;;5032212;28;20060;-64
2021/05/15 08:27:52;;;;;;;4.72;2.08;;;16.60;84.20;;;;;;5050351;28;20063;-64
2021/05/15 08:30:20;;;;;;;2.92;1.88;;;16.60;84.30;;;;;;5051168;28;20029;-65
2021/05/15 08:32:48;;;;;;;2.97;1.80;;;16.60;85.20;;;;;;5052236;28;20468;-65
2021/05/15 08:35:15;;;;;;;4.47;2.38;;;16.70;84.10;;;;;;5033130;28;20037;-67
2021/05/15 08:37:41;;;;;;;3.15;2.05;;;16.70;83.60;;;;;;5048066;28;20614;-65
2021/05/15 08:40:09;;;;;;;3.78;2.10;;;16.60;84.40;;;;;;5051288;28;20056;-65
2021/05/15 08:42:36;;;;;;;2.80;1.60;;;16.70;82.70;;;;;;5050181;28;20225;-65
2021/05/15 08:45:05;;;;;;;3.95;1.90;;;16.80;83.30;;;;;;5052485;28;20116;-65
2021/05/15 08:47:31;;;;;;;2.75;1.77;;;17.00;80.10;;;;;;5053229;28;20436;-65
2021/05/15 08:50:01;;;;;;;3.83;1.70;;;17.00;80.20;;;;;;5022697;28;20057;-65
2021/05/15 08:52:27;;;;;;;3.80;2.03;;;17.00;81.10;;;;;;5031588;28;20047;-65
2021/05/15 08:54:53;;;;;;;4.22;2.03;;;16.90;81.30;;;;;;5048285;28;20047;-65
2021/05/15 08:57:19;;;;;;;3.83;2.35;;;16.90;82.60;;;;;;5047947;28;20094;-65
2021/05/15 08:59:50;;;;;;;2.50;1.58;;;16.90;80.70;;;;;;5029902;28;20124;-64
2021/05/15 09:02:16;;;;;;;2.58;1.42;;;16.90;80.50;;;;;;5028909;28;20099;-65
2021/05/15 09:05:08;;;;;;;3.95;1.85;;;16.90;80.30;;;;;;5054824;28;20041;-65
2021/05/15 09:07:35;;;;;;;2.97;2.03;;;16.80;80.70;;;;;;5047952;28;20053;-65
2021/05/15 09:10:07;;;;;;;2.78;1.77;;;16.90;81.20;;;;;;5029016;28;20052;-65
2021/05/15 09:12:34;;;;;;;2.92;1.45;;;16.80;82.20;;;;;;5047560;28;20059;-65
2021/05/15 09:15:05;;;;;;;2.28;1.45;;;16.90;77.70;;;;;;5025090;28;20478;-65
2021/05/15 09:17:46;;;;;;;2.08;1.10;;;16.90;77.80;;;;;;5046567;28;20075;-65
2021/05/15 09:20:41;;;;;;;2.33;1.55;;;16.90;79.80;;;;;;5029502;28;20061;-65
2021/05/15 09:23:24;;;;;;;1.63;1.05;;;17.00;77.30;;;;;;5027223;28;20080;-65
2021/05/15 09:26:03;;;;;;;1.83;0.68;;;17.00;76.20;;;;;;5022362;28;20056;-65
2021/05/15 09:28:34;;;;;;;1.55;0.50;;;17.00;73.60;;;;;;5049339;28;20076;-65
2021/05/15 09:31:28;;;;;;;1.02;0.50;;;17.20;72.10;;;;;;5048298;28;20074;-65
2021/05/15 09:34:06;;;;;;;0.98;0.60;;;17.20;73.30;;;;;;5016698;28;20495;-65
2021/05/15 09:36:45;;;;;;;0.93;0.60;;;17.20;75.20;;;;;;5042129;28;20065;-65
2021/05/15 09:39:13;;;;;;;6.63;1.50;;;17.20;74.60;;;;;;5043178;28;20049;-65
2021/05/15 09:41:48;;;;;;;2.15;0.80;;;17.40;73.50;;;;;;5046966;28;20052;-65
2021/05/15 09:44:17;;;;;;;2.67;0.90;;;17.70;70.90;;;;;;5029035;28;20049;-65
2021/05/15 09:46:46;;;;;;;3.13;1.27;;;17.80;68.90;;;;;;5027847;28;20060;-65
2021/05/15 09:49:16;;;;;;;0.70;0.40;;;17.70;71.10;;;;;;5045501;28;20056;-65
2021/05/15 09:52:00;;;;;;;3.40;0.60;;;17.60;73.10;;;;;;5041447;28;20140;-65
2021/05/15 09:54:36;;;;;;;1.48;0.80;;;17.70;70.90;;;;;;5048593;28;20573;-65
2021/05/15 09:57:04;;;;;;;1.98;1.08;;;18.00;70.00;;;;;;5028626;28;20079;-65
2021/05/15 09:59:33;;;;;;;1.30;0.50;;;17.80;70.90;;;;;;5026814;28;20192;-65
2021/05/15 10:02:08;;;;;;;2.30;0.77;;;17.70;71.20;;;;;;5045616;28;20049;-65
2021/05/15 10:04:48;;;;;;;1.25;0.73;;;17.60;71.40;;;;;;5025687;28;20067;-65
2021/05/15 10:07:31;;;;;;;1.38;0.80;;;17.80;69.10;;;;;;5045662;28;20041;-65
2021/05/15 10:10:04;;;;;;;1.38;0.50;;;17.90;69.40;;;;;;5014601;28;20055;-65
2021/05/15 10:12:33;;;;;;;2.38;1.00;;;17.80;70.50;;;;;;5045388;28;20504;-65
2021/05/15 10:15:03;;;;;;;2.60;0.73;;;17.70;71.30;;;;;;5047737;28;20051;-65
2021/05/15 10:17:30;;;;;;;1.60;0.40;;;17.60;70.90;;;;;;5027166;28;20049;-65
2021/05/15 10:19:58;;;;;;;3.10;0.70;;;17.70;73.00;;;;;;5019476;28;20407;-65
2021/05/15 10:22:25;;;;;;;1.40;0.43;;;17.60;73.80;;;;;;5029796;28;20543;-65
2021/05/15 10:24:54;;;;;;;2.28;0.50;;;17.90;69.20;;;;;;5043459;28;20056;-65
2021/05/15 10:27:22;;;;;;;1.05;0.40;;;18.30;67.50;;;;;;5046905;28;20512;-65
2021/05/15 10:29:54;;;;;;;2.00;0.43;;;18.20;67.10;;;;;;5046750;28;22187;-65
2021/05/15 10:32:21;;;;;;;;;;;18.10;68.70;;;;;;5045869;28;20049;-65
2021/05/15 10:35:09;;;;;;;1.10;0.30;;;18.10;69.30;;;;;;5027169;28;19947;-65
2021/05/15 10:37:42;;;;;;;0.77;0.40;;;18.10;67.90;;;;;;5045861;28;20077;-65
2021/05/15 10:40:18;;;;;;;1.75;0.30;;;18.10;67.30;;;;;;5023320;28;20045;-65
2021/05/15 10:43:00;;;;;;;0.70;0.25;;;18.00;66.10;;;;;;5044571;28;20443;-65
2021/05/15 10:45:41;;;;;;;0.80;0.43;;;17.90;68.30;;;;;;5045914;28;20045;-65
2021/05/15 10:48:25;;;;;;;1.60;0.70;;;18.00;67.80;;;;;;5046295;28;20064;-65
2021/05/15 10:50:58;;;;;;;1.42;0.40;;;18.00;68.70;;;;;;5045481;28;20060;-65
2021/05/15 10:53:26;;;;;;;;;;;18.40;65.60;;;;;;5031867;28;20148;-65
2021/05/15 10:56:17;;;;;;;1.67;0.50;;;18.40;66.30;;;;;;5046776;28;20296;-65
2021/05/15 10:58:50;;;;;;;2.40;0.52;;;18.50;65.80;;;;;;5043463;28;20065;-65
2021/05/15 11:01:17;;;;;;;1.17;0.57;;;18.50;66.30;;;;;;5043816;28;20159;-65
2021/05/15 11:03:48;;;;;;;3.08;0.40;;;18.30;67.50;;;;;;5024584;28;20102;-65
2021/05/15 11:06:23;;;;;;;0.60;0.35;;;18.20;68.60;;;;;;5043658;28;20056;-65
2021/05/15 11:08:58;;;;;;;1.58;0.30;;;18.20;68.10;;;;;;5026764;28;20099;-65
2021/05/15 11:11:40;;;;;;;2.88;0.57;;;18.40;69.30;;;;;;5025465;28;20045;-65
2021/05/15 11:14:33;;;;;;;0.90;0.50;;;18.30;70.10;;;;;;5045232;28;20053;-65
2021/05/15 11:17:22;;;;;;;1.45;0.20;;;18.40;68.10;;;;;;5045483;28;20080;-66
2021/05/15 11:19:55;;;;;;;2.05;0.20;;;18.60;67.50;;;;;;5018088;28;20057;-65
2021/05/15 11:22:37;;;;;;;2.20;0.43;;;18.80;66.30;;;;;;5042480;28;20128;-65
2021/05/15 11:25:15;;;;;;;2.83;0.50;;;18.60;67.90;;;;;;5044526;28;20115;-65
2021/05/15 11:28:03;;;;;;;1.05;0.40;;;18.40;69.10;;;;;;5046529;28;20061;-65
2021/05/15 11:30:45;;;;;;;2.05;0.40;;;18.40;68.70;;;;;;5028028;28;20076;-65
2021/05/15 11:33:21;;;;;;;1.07;0.40;;;18.50;68.30;;;;;;5048686;28;20049;-65
2021/05/15 11:35:50;;;;;;;0.60;0.40;;;18.50;67.50;;;;;;5048185;28;20901;-65
2021/05/15 11:38:20;;;;;;;1.23;0.40;;;18.50;67.60;;;;;;5030389;28;20076;-65
2021/05/15 11:40:47;;;;;;;1.92;0.50;;;18.70;67.30;;;;;;5029937;28;20416;-65
2021/05/15 11:43:21;;;;;;;1.73;0.30;;;18.70;66.90;;;;;;5050287;28;20063;-65
2021/05/15 11:45:53;;;;;;;2.60;0.63;;;18.70;68.70;;;;;;5048957;28;20057;-65
2021/05/15 11:48:22;;;;;;;1.60;0.40;;;18.60;69.30;;;;;;5053557;28;20124;-65
2021/05/15 11:51:06;;;;;;;1.23;0.60;;;18.80;67.90;;;;;;5046646;28;20060;-65
2021/05/15 11:53:50;;;;;;;1.42;0.45;;;18.90;67.80;;;;;;5047137;28;20067;-65
2021/05/15 11:56:18;;;;;;;2.45;0.52;;;19.00;66.50;;;;;;5051557;28;20067;-65
2021/05/15 11:58:51;;;;;;;0.70;0.32;;;19.00;67.80;;;;;;5032728;28;21355;-65
2021/05/15 12:01:22;;;;;;;0.93;0.40;;;19.00;69.30;;;;;;5048371;28;20060;-65
2021/05/15 12:03:51;;;;;;;1.63;0.63;;;19.10;68.80;;;;;;5052003;28;20048;-65
2021/05/15 12:06:18;;;;;;;3.85;0.47;;;19.10;67.60;;;;;;5051158;28;20049;-65
2021/05/15 12:08:46;;;;;;;1.20;0.38;;;19.20;68.70;;;;;;5032493;28;20049;-65
2021/05/15 12:11:13;;;;;;;0.88;0.47;;;19.30;68.00;;;;;;5049870;28;20045;-65
2021/05/15 12:13:52;;;;;;;0.60;0.25;;;19.80;63.30;;;;;;5050383;28;20049;-65
2021/05/15 12:16:20;;;;;;;7.25;0.50;;;20.00;62.70;;;;;;5047692;28;20056;-65
2021/05/15 12:18:47;;;;;;;0.60;0.30;;;20.00;64.90;;;;;;5027533;28;20060;-65
2021/05/15 12:21:15;;;;;;;0.98;0.30;;;20.00;63.00;;;;;;5032308;28;20079;-65
2021/05/15 12:23:43;;;;;;;0.47;0.20;;;20.30;62.10;;;;;;5048474;28;20048;-65
2021/05/15 12:26:11;;;;;;;2.40;0.20;;;20.20;63.50;;;;;;5047970;28;20041;-65
2021/05/15 12:28:44;;;;;;;0.47;0.15;;;20.30;64.30;;;;;;5038099;28;20060;-66
2021/05/15 12:31:25;;;;;;;0.20;0.13;;;20.30;64.10;;;;;;5043759;28;20044;-65
2021/05/15 12:33:53;;;;;;;1.27;0.20;;;20.30;61.30;;;;;;5045729;28;20423;-66
2021/05/15 12:36:20;;;;;;;1.88;0.30;;;20.60;59.40;;;;;;5049518;28;20053;-65
2021/05/15 12:38:50;;;;;;;1.65;0.10;;;20.80;58.00;;;;;;5029502;28;20055;-66
2021/05/15 12:41:19;;;;;;;1.15;0.30;;;20.70;59.90;;;;;;5015126;28;20099;-66
2021/05/15 12:43:47;;;;;;;0.98;0.30;;;20.50;59.10;;;;;;5026337;28;20049;-65
2021/05/15 12:46:17;;;;;;;0.75;0.20;;;20.20;60.00;;;;;;5022856;28;20135;-65
2021/05/15 12:48:58;;;;;;;3.85;0.40;;;20.20;61.70;;;;;;5009732;28;20057;-66
2021/05/15 12:51:37;;;;;;;2.05;0.40;;;20.20;62.90;;;;;;5048879;28;20045;-67
2021/05/15 12:54:22;;;;;;;2.25;0.20;;;20.10;62.70;;;;;;5031134;28;20053;-66